createdAt,value
2024-02-29T00:03:53.456Z,1.31
2024-02-29T00:08:55.185Z,1.28
2024-02-29T00:13:56.846Z,1.23
2024-02-29T00:19:00.071Z,0.74
2024-02-29T00:24:01.784Z,1.13
2024-02-29T00:29:03.415Z,1.11
2024-02-29T00:34:06.604Z,1.02
2024-02-29T00:39:14.354Z,1.03
2024-02-29T00:44:16.956Z,0.91
2024-02-29T00:49:20.108Z,0.90
2024-02-29T00:54:21.769Z,0.89
2024-02-29T00:59:23.358Z,0.81
2024-02-29T01:04:26.371Z,0.74
2024-02-29T01:09:28.149Z,0.66
2024-02-29T01:14:29.764Z,0.73
2024-02-29T01:19:32.809Z,0.37
2024-02-29T01:24:34.472Z,0.65
2024-02-29T01:29:36.136Z,0.59
2024-02-29T01:34:39.126Z,0.56
2024-02-29T01:39:41.034Z,0.37
2024-02-29T01:44:53.212Z,0.50
2024-02-29T01:49:59.616Z,0.46
2024-02-29T01:55:01.497Z,0.43
2024-02-29T02:00:05.972Z,0.38
2024-02-29T02:05:10.701Z,0.38
2024-02-29T02:10:12.440Z,0.29
2024-02-29T02:15:14.701Z,0.29
2024-02-29T02:20:18.694Z,-0.03
2024-02-29T02:25:20.524Z,0.23
2024-02-29T02:30:22.186Z,0.15
2024-02-29T02:35:25.248Z,0.14
2024-02-29T02:40:26.917Z,0.08
2024-02-29T02:45:28.535Z,0.04
2024-02-29T02:50:31.557Z,0.01
2024-02-29T02:55:33.211Z,0.01
2024-02-29T03:00:34.951Z,-0.08
2024-02-29T03:05:38.055Z,-0.27
2024-02-29T03:10:39.844Z,-0.14
2024-02-29T03:15:41.586Z,-0.10
2024-02-29T03:20:44.698Z,-0.14
2024-02-29T03:25:46.609Z,-0.21
2024-02-29T03:30:48.304Z,-0.19
2024-02-29T03:35:51.410Z,-0.21
2024-02-29T03:40:53.268Z,-0.24
2024-02-29T03:45:54.990Z,-0.25
2024-02-29T03:50:58.019Z,-0.19
2024-02-29T03:55:59.735Z,-0.34
2024-02-29T04:01:01.657Z,-0.39
2024-02-29T04:06:05.251Z,-0.32
2024-02-29T04:11:06.950Z,-0.34
2024-02-29T04:16:08.607Z,-0.39
2024-02-29T04:21:11.696Z,-0.47
2024-02-29T04:26:13.401Z,-0.46
2024-02-29T04:31:15.180Z,-0.41
2024-02-29T04:36:18.445Z,-0.41
2024-02-29T04:41:20.135Z,-0.43
2024-02-29T04:46:21.885Z,-0.40
2024-02-29T04:51:24.893Z,-0.27
2024-02-29T04:56:26.617Z,-0.33
2024-02-29T05:01:28.339Z,-0.34
2024-02-29T05:06:31.452Z,-0.35
2024-02-29T05:11:33.686Z,-0.30
2024-02-29T05:16:36.198Z,-0.28
2024-02-29T05:21:39.393Z,-0.27
2024-02-29T05:26:41.009Z,-0.24
2024-02-29T05:31:49.876Z,-0.33
2024-02-29T05:36:53.146Z,-0.25
2024-02-29T05:41:56.213Z,-0.18
2024-02-29T05:46:57.909Z,-0.21
2024-02-29T05:52:01.006Z,-0.44
2024-02-29T05:57:05.973Z,-0.19
2024-02-29T06:02:08.124Z,-0.13
2024-02-29T06:07:11.326Z,-0.11
2024-02-29T06:12:13.018Z,0.23
2024-02-29T06:17:14.687Z,0.22
2024-02-29T06:22:17.943Z,0.39
2024-02-29T06:27:22.564Z,0.31
2024-02-29T06:32:24.171Z,0.40
2024-02-29T06:37:27.424Z,0.53
2024-02-29T06:42:29.127Z,0.60
2024-02-29T06:47:30.837Z,0.85
2024-02-29T06:52:33.843Z,1.08
2024-02-29T06:57:35.641Z,1.38
2024-02-29T07:02:37.260Z,1.75
2024-02-29T07:07:40.212Z,1.93
2024-02-29T07:12:42.408Z,2.27
2024-02-29T07:17:44.187Z,2.61
2024-02-29T07:22:48.716Z,2.87
2024-02-29T07:27:50.513Z,3.07
2024-02-29T07:32:52.254Z,3.13
2024-02-29T07:37:55.362Z,3.34
2024-02-29T07:42:57.103Z,3.48
2024-02-29T07:47:59.054Z,3.78
2024-02-29T07:53:02.141Z,3.89
2024-02-29T07:58:04.027Z,4.14
2024-02-29T08:03:05.955Z,4.19
2024-02-29T08:08:08.937Z,4.30
2024-02-29T08:13:10.636Z,4.37
2024-02-29T08:18:12.347Z,4.58
2024-02-29T08:23:15.412Z,4.64
2024-02-29T08:28:17.183Z,4.86
2024-02-29T08:33:18.918Z,4.99
2024-02-29T08:38:22.108Z,5.28
2024-02-29T08:43:23.654Z,5.47
2024-02-29T08:48:25.329Z,5.60
2024-02-29T08:53:28.358Z,5.85
2024-02-29T08:58:30.052Z,5.94
2024-02-29T09:03:31.661Z,6.17
2024-02-29T09:08:34.728Z,6.35
2024-02-29T09:13:36.538Z,6.71
2024-02-29T09:18:38.277Z,7.17
2024-02-29T09:23:41.295Z,7.30
2024-02-29T09:28:42.796Z,7.48
2024-02-29T09:33:44.541Z,7.53
2024-02-29T09:38:48.055Z,7.60
2024-02-29T09:43:50.657Z,7.93
2024-02-29T09:48:52.425Z,8.08
2024-02-29T09:53:55.891Z,8.41
2024-02-29T09:58:58.962Z,8.61
2024-02-29T10:04:01.351Z,8.68
2024-02-29T10:09:04.443Z,8.77
2024-02-29T10:14:06.172Z,8.80
2024-02-29T10:19:12.260Z,8.90
2024-02-29T10:24:15.444Z,9.14
2024-02-29T10:29:17.675Z,8.92
2024-02-29T10:34:20.639Z,8.95
2024-02-29T10:39:24.012Z,8.92
2024-02-29T10:44:31.486Z,9.02
2024-02-29T10:49:38.629Z,8.93
2024-02-29T10:54:49.745Z,9.42
2024-02-29T10:59:59.196Z,9.65
2024-02-29T11:05:01.460Z,9.82
2024-02-29T11:10:06.061Z,10.16
2024-02-29T11:15:11.497Z,10.49
2024-02-29T11:20:20.418Z,11.03
2024-02-29T11:25:23.902Z,11.46
2024-02-29T11:30:25.834Z,11.58
2024-02-29T11:35:27.881Z,11.70
2024-02-29T11:40:31.904Z,11.91
2024-02-29T11:45:33.841Z,12.04
2024-02-29T11:50:35.489Z,12.32
2024-02-29T11:55:38.656Z,12.51
2024-02-29T12:00:40.390Z,12.59
2024-02-29T12:05:42.067Z,12.24
2024-02-29T12:10:48.979Z,12.92
2024-02-29T12:15:54.546Z,13.11
2024-02-29T12:20:57.458Z,13.20
2024-02-29T12:26:09.228Z,13.11
2024-02-29T12:31:10.977Z,13.08
2024-02-29T12:36:14.215Z,13.01
2024-02-29T12:41:17.348Z,12.66
2024-02-29T12:46:19.181Z,12.48
2024-02-29T12:51:20.908Z,12.39
2024-02-29T12:56:24.104Z,12.43
2024-02-29T13:01:26.063Z,12.39
2024-02-29T13:06:27.926Z,12.42
2024-02-29T13:11:31.039Z,12.48
2024-02-29T13:16:33.170Z,12.29
2024-02-29T13:21:34.931Z,12.76
2024-02-29T13:26:38.418Z,12.80
2024-02-29T13:31:40.164Z,12.87
2024-02-29T13:36:41.856Z,12.85
2024-02-29T13:41:45.015Z,12.96
2024-02-29T13:46:46.722Z,12.88
2024-02-29T13:51:48.449Z,12.98
2024-02-29T13:56:52.515Z,13.07
2024-02-29T14:01:54.308Z,13.04
2024-02-29T14:06:56.152Z,13.04
2024-02-29T14:11:59.148Z,13.16
2024-02-29T14:17:00.796Z,13.04
2024-02-29T14:22:02.691Z,13.16
2024-02-29T14:27:06.125Z,13.10
2024-02-29T14:32:07.743Z,13.15
2024-02-29T14:37:09.555Z,13.45
2024-02-29T14:42:12.571Z,13.67
2024-02-29T14:47:14.330Z,13.86
2024-02-29T14:52:16.018Z,13.44
2024-02-29T14:57:19.125Z,13.85
2024-02-29T15:02:20.783Z,14.14
2024-02-29T15:07:22.549Z,14.23
2024-02-29T15:12:25.765Z,14.18
2024-02-29T15:17:29.883Z,14.10
2024-02-29T15:22:32.868Z,13.69
2024-02-29T15:27:36.013Z,13.61
2024-02-29T15:32:37.717Z,13.45
2024-02-29T15:37:39.605Z,13.21
2024-02-29T15:42:42.904Z,12.93
2024-02-29T15:47:44.756Z,12.68
2024-02-29T15:52:46.443Z,12.55
2024-02-29T15:57:49.480Z,12.42
2024-02-29T16:02:51.317Z,12.26
2024-02-29T16:07:55.797Z,11.93
2024-02-29T16:12:59.373Z,11.65
2024-02-29T16:18:01.476Z,11.43
2024-02-29T16:23:03.434Z,11.18
2024-02-29T16:28:06.877Z,10.99
2024-02-29T16:33:08.647Z,10.75
2024-02-29T16:38:10.388Z,10.62
2024-02-29T16:43:13.426Z,10.35
2024-02-29T16:48:15.291Z,10.10
2024-02-29T16:53:16.940Z,9.89
2024-02-29T16:58:19.999Z,9.55
2024-02-29T17:03:21.696Z,9.31
2024-02-29T17:08:23.307Z,9.06
2024-02-29T17:13:26.349Z,8.86
2024-02-29T17:18:28.048Z,8.69
2024-02-29T17:23:29.715Z,8.51
2024-02-29T17:28:32.793Z,8.40
2024-02-29T17:33:34.462Z,8.21
2024-02-29T17:38:36.118Z,8.32
2024-02-29T17:43:40.081Z,8.32
2024-02-29T17:48:41.833Z,8.14
2024-02-29T17:53:43.530Z,8.05
2024-02-29T17:58:46.697Z,7.80
2024-02-29T18:03:48.335Z,7.95
2024-02-29T18:08:50.019Z,7.95
2024-02-29T18:13:53.058Z,7.99
2024-02-29T18:18:54.754Z,8.04
2024-02-29T18:23:56.434Z,8.06
2024-02-29T18:29:01.174Z,7.94
2024-02-29T18:34:02.789Z,7.91
2024-02-29T18:39:04.722Z,7.75
2024-02-29T18:44:07.767Z,7.73
2024-02-29T18:49:10.272Z,7.32
2024-02-29T18:54:12.348Z,7.39
2024-02-29T18:59:15.422Z,7.35
2024-02-29T19:04:17.310Z,7.23
2024-02-29T19:09:19.242Z,7.25
2024-02-29T19:14:22.262Z,7.10
2024-02-29T19:19:24.051Z,7.02
2024-02-29T19:24:25.733Z,6.85
2024-02-29T19:29:28.704Z,6.74
2024-02-29T19:34:30.394Z,6.72
2024-02-29T19:39:32.080Z,6.71
2024-02-29T19:44:35.226Z,6.18
2024-02-29T19:49:37.451Z,6.71
2024-02-29T19:54:39.363Z,6.62
2024-02-29T19:59:42.357Z,6.38
2024-02-29T20:04:44.129Z,6.12
2024-02-29T20:09:47.869Z,5.85
2024-02-29T20:14:50.972Z,5.54
2024-02-29T20:19:52.696Z,5.56
2024-02-29T20:24:54.364Z,5.26
2024-02-29T20:29:57.503Z,5.12
2024-02-29T20:34:59.453Z,4.99
2024-02-29T20:40:01.190Z,4.88
2024-02-29T20:45:05.248Z,3.98
2024-02-29T20:50:07.167Z,4.30
2024-02-29T20:55:09.217Z,4.25
2024-02-29T21:00:13.615Z,4.10
2024-02-29T21:05:15.439Z,3.86
2024-02-29T21:10:17.896Z,3.85
2024-02-29T21:15:20.912Z,3.83
2024-02-29T21:20:22.691Z,3.65
2024-02-29T21:25:24.955Z,3.46
2024-02-29T21:30:28.291Z,3.35
2024-02-29T21:35:30.148Z,3.31
2024-02-29T21:40:32.712Z,3.04
2024-02-29T21:45:35.778Z,3.12
2024-02-29T21:50:37.428Z,3.04
2024-02-29T21:55:39.095Z,2.94
2024-02-29T22:00:42.218Z,2.89
2024-02-29T22:05:43.901Z,2.77
2024-02-29T22:10:47.269Z,2.69
2024-02-29T22:15:50.421Z,2.59
2024-02-29T22:20:52.373Z,2.47
2024-02-29T22:25:54.118Z,2.43
2024-02-29T22:30:57.332Z,2.34
2024-02-29T22:35:59.875Z,2.30
2024-02-29T22:41:01.561Z,2.19
2024-02-29T22:46:04.916Z,2.22
2024-02-29T22:51:06.447Z,2.18
2024-02-29T22:56:08.165Z,2.23
2024-02-29T23:01:12.875Z,2.18
2024-02-29T23:06:14.549Z,2.00
2024-02-29T23:11:16.226Z,2.18
2024-02-29T23:16:19.478Z,2.13
2024-02-29T23:21:21.204Z,1.54
2024-02-29T23:26:22.890Z,1.96
2024-02-29T23:31:25.977Z,1.87
2024-02-29T23:36:27.628Z,1.83
2024-02-29T23:41:29.299Z,1.77
2024-02-29T23:46:32.379Z,1.75
2024-02-29T23:51:34.856Z,1.68
2024-02-29T23:56:36.477Z,1.49
